DEKT2: Red River, Dekalb, TX

                                SHEF ID:       DEKT2     Red River near De Kalb, TX
STATION TYPE: Stream Gauge
Regulating: Stage = 23.70, Flow = 62933

PRECIP STAGE STAGE(2) RIV-FLOW BAT-LOAD
in ft ft cfs volt
Ccp-Rev Ccp-Rev Ccp-Rev Ccp-Rev Ccp-Rev
(America/Chicago)
05/07 00:00 0.00 8.67 ---- 3613 12.41
05/07 01:00 0.00 8.63 ---- 3554 12.41
05/07 02:00 0.00 8.59 ---- 3495 12.41
05/07 03:00 0.00 8.55 ---- 3436 12.41
05/07 04:00 0.00 8.51 ---- 3378 12.41
05/07 05:00 0.00 8.49 ---- 3349 12.41
05/07 06:00 0.00 8.46 ---- 3306 12.41
05/07 07:00 0.00 8.42 ---- 3249 12.41
05/07 08:00 0.00 8.39 ---- 3206 13.29
05/07 09:00 0.00 8.37 ---- 3178 13.29
05/07 10:00 0.00 8.34 ---- 3136 13.29
05/07 11:00 0.00 8.32 ---- 3108 13.29
05/07 12:00 0.00 8.30 ---- 3080 13.29
05/07 13:00 0.00 8.28 ---- 3052 13.29
05/07 14:00 0.00 8.26 ---- 3024 13.29
05/07 15:00 0.00 8.20 ---- 2941 13.29
05/07 16:00 0.00 8.21 ---- 2955 13.05
05/07 17:00 0.00 8.18 ---- 2914 13.37
05/07 18:00 0.00 8.17 ---- 2900 13.29
05/07 19:00 0.00 8.14 ---- 2859 13.13
05/07 20:00 0.00 8.14 ---- 2859 12.81
05/07 21:00 0.00 8.13 ---- 2846 12.73
05/07 22:00 0.00 8.11 ---- 2819 12.65
05/07 23:00 0.00 8.11 ---- 2819 12.65
Data processed at Fri 08May2026 04:30 GMT

NOTICE: If you are parsing this page

Please convert to using our Data API. Starting early 2026 we will be migrating to: https://water.usace.army.mil with modern pages rendered in JavaScript. When this migration completes you will no longer be able to scrape this page! CWMSDataAPI (CDA)

Timeseries IDs (TSIDs)

TSIDs used from left to right in the data table
DEKA.Precip-Inc.Total.1Hour.1Hour.Ccp-Rev
DEKA.Stage.Inst.1Hour.0.Ccp-Rev
DEKA.Stage-Alt.Inst.1Hour.0.Ccp-Rev
DEKA.Flow.Inst.1Hour.0.Ccp-Rev
DEKA.Volt-Battery Load.Inst.1Hour.0.Ccp-Rev

                            

All information presented herein is the property of the government of the United States of America and may be revised or deleted at any time without prior notice. Dissemination of this information without the expressed written consent of the Public Affairs Office, Tulsa District U.S. Army Corps of Engineers is strictly prohibited. These data are gathered electronically and, as presented, have NOT undergone any form of quality control. These data are NOT guaranteed to be valid or correct.